Isil'Kul, Russia
Current Conditions -  °F | °C
As of 5:30 PM on Sunday 21 Dec 2014 (Local Time) from UACP Reporting Station
Overcast Overcast  
Wind Chill: 13°   Ceiling: 700
Heat Index: 25°   Visibility: 6mi
Dew Point: 25°   Wind: 13mph
Humidity: 100%   Direction: 210°SSW
Pressure: 29.91"   Gusts: NA
Location:  54.9°N, 71.25°E
Report Text: UACP 211130Z 21006MPS 9999 OVC007 M04/M04 Q1013 R23/4/1535NOSIG RMK QFE747/0996
Loading
Personal Weather Stations






























Interactive Weather Map New forecast layout! Learn more

10-Day Weather Forecast

Advertisements
Track Severe Weather on mobile